Time;durP1;ratioP1;P1;durP2;ratioP2;P2;SDS_P1;SDS_P2;PMS_P1;PMS_P2;Temp;Humidity;BMP_temperature;BMP_pressure;BME280_temperature;BME280_humidity;BME280_pressure;Samples;Min_cycle;Max_cycle;Signal;HPM_P1;HPM_P2
2021/05/14 00:01:56;;;;;;;8.25;5.93;;;16.60;69.80;;;;;;5092657;28;20541;-72
2021/05/14 00:04:23;;;;;;;9.23;6.43;;;16.50;69.40;;;;;;5093048;28;20492;-70
2021/05/14 00:06:50;;;;;;;8.07;6.68;;;16.60;69.40;;;;;;5091349;28;20058;-71
2021/05/14 00:09:17;;;;;;;10.45;6.78;;;16.60;69.30;;;;;;5091298;28;20074;-70
2021/05/14 00:11:44;;;;;;;12.57;6.95;;;16.60;69.30;;;;;;5091332;28;20043;-72
2021/05/14 00:14:11;;;;;;;10.80;6.50;;;16.60;69.20;;;;;;5092382;28;20115;-71
2021/05/14 00:16:37;;;;;;;12.07;6.53;;;16.60;69.20;;;;;;5091680;28;20036;-70
2021/05/14 00:19:03;;;;;;;8.45;6.22;;;16.60;69.20;;;;;;5074217;28;20435;-71
2021/05/14 00:21:31;;;;;;;11.25;6.28;;;16.70;69.20;;;;;;5091578;28;20119;-70
2021/05/14 00:23:57;;;;;;;10.32;6.30;;;16.70;69.30;;;;;;5091240;28;20037;-70
2021/05/14 00:26:24;;;;;;;10.20;6.72;;;16.60;69.20;;;;;;5092140;28;20047;-71
2021/05/14 00:28:50;;;;;;;8.85;6.43;;;16.60;69.30;;;;;;5074471;28;20028;-70
2021/05/14 00:31:16;;;;;;;11.35;5.97;;;16.60;69.50;;;;;;5092375;28;20054;-72
2021/05/14 00:33:43;;;;;;;10.63;5.93;;;16.60;69.50;;;;;;5074604;28;20046;-73
2021/05/14 00:36:09;;;;;;;9.48;5.88;;;16.60;69.50;;;;;;5093184;28;20040;-71
2021/05/14 00:38:36;;;;;;;8.57;5.85;;;16.60;69.50;;;;;;5096704;28;20089;-71
2021/05/14 00:41:04;;;;;;;10.93;6.80;;;16.50;69.50;;;;;;5094944;28;20036;-73
2021/05/14 00:43:30;;;;;;;9.98;6.10;;;16.50;69.50;;;;;;5094956;28;20123;-71
2021/05/14 00:45:57;;;;;;;8.30;6.93;;;16.50;69.50;;;;;;5096069;28;20181;-72
2021/05/14 00:48:23;;;;;;;8.18;6.65;;;16.50;69.50;;;;;;5078259;28;20480;-71
2021/05/14 00:50:49;;;;;;;10.65;7.00;;;16.50;69.50;;;;;;5095650;28;20051;-72
2021/05/14 00:53:15;;;;;;;10.48;6.53;;;16.50;69.60;;;;;;5095637;28;20119;-70
2021/05/14 00:55:41;;;;;;;9.60;6.03;;;16.50;69.70;;;;;;5095565;28;20062;-71
2021/05/14 00:58:07;;;;;;;10.43;6.18;;;16.40;69.80;;;;;;5095776;28;20068;-72
2021/05/14 01:00:33;;;;;;;8.40;6.05;;;16.40;69.80;;;;;;5095723;28;20039;-70
2021/05/14 01:02:59;;;;;;;12.20;6.57;;;16.40;69.90;;;;;;5077277;28;20043;-69
2021/05/14 01:05:25;;;;;;;9.20;6.93;;;16.40;70.00;;;;;;5077658;28;20036;-71
2021/05/14 01:07:51;;;;;;;10.85;7.00;;;16.40;69.80;;;;;;5095314;28;20504;-70
2021/05/14 01:10:18;;;;;;;10.63;6.72;;;16.30;69.90;;;;;;5095220;28;20500;-70
2021/05/14 01:12:45;;;;;;;8.63;6.43;;;16.30;69.90;;;;;;5094600;28;20036;-70
2021/05/14 01:15:11;;;;;;;10.10;6.90;;;16.30;69.90;;;;;;5077832;28;20036;-73
2021/05/14 01:17:37;;;;;;;11.32;6.88;;;16.30;69.90;;;;;;5095896;28;20044;-71
2021/05/14 01:20:04;;;;;;;12.18;6.57;;;16.30;70.00;;;;;;5094717;28;20047;-70
2021/05/14 01:22:30;;;;;;;11.27;7.03;;;16.30;70.10;;;;;;5095353;28;20039;-70
2021/05/14 01:24:56;;;;;;;7.00;6.28;;;16.20;70.00;;;;;;5094061;28;20036;-69
2021/05/14 01:27:23;;;;;;;10.93;7.00;;;16.20;70.10;;;;;;5095699;28;20044;-70
2021/05/14 01:29:49;;;;;;;11.13;6.20;;;16.20;70.20;;;;;;5094186;28;20094;-71
2021/05/14 01:32:16;;;;;;;9.80;7.07;;;16.20;70.10;;;;;;5095226;28;20040;-70
2021/05/14 01:34:42;;;;;;;10.07;6.90;;;16.20;70.10;;;;;;5094105;28;20047;-72
2021/05/14 01:37:08;;;;;;;9.63;6.40;;;16.20;70.10;;;;;;5093848;28;20058;-71
2021/05/14 01:39:34;;;;;;;9.27;7.00;;;16.20;70.10;;;;;;5076988;28;20032;-71
2021/05/14 01:42:02;;;;;;;9.82;6.75;;;16.20;70.10;;;;;;5076585;28;20514;-70
2021/05/14 01:44:29;;;;;;;8.05;6.45;;;16.20;70.10;;;;;;5076719;28;20032;-71
2021/05/14 01:46:55;;;;;;;11.40;6.57;;;16.20;70.10;;;;;;5094542;28;20105;-70
2021/05/14 01:49:22;;;;;;;9.05;6.40;;;16.20;70.00;;;;;;5094457;28;20056;-69
2021/05/14 01:51:48;;;;;;;8.90;6.13;;;16.20;70.00;;;;;;5093556;28;20057;-72
2021/05/14 01:54:15;;;;;;;9.05;6.43;;;16.10;70.00;;;;;;5076323;28;20113;-70
2021/05/14 01:56:49;;;;;;;9.80;6.43;;;16.10;70.10;;;;;;5095057;28;20040;-70
2021/05/14 01:59:15;;;;;;;7.80;6.25;;;16.10;70.10;;;;;;5076980;28;20408;-70
2021/05/14 02:01:42;;;;;;;9.52;6.70;;;16.10;70.10;;;;;;5094630;28;20113;-70
2021/05/14 02:04:08;;;;;;;8.88;6.35;;;16.20;70.10;;;;;;5094440;28;20511;-70
2021/05/14 02:06:35;;;;;;;9.10;6.00;;;16.20;70.70;;;;;;5094283;28;20145;-71
2021/05/14 02:09:04;;;;;;;8.27;6.18;;;16.20;70.00;;;;;;5093120;28;20024;-71
2021/05/14 02:11:30;;;;;;;7.18;5.68;;;16.20;70.10;;;;;;5093264;28;20058;-70
2021/05/14 02:13:56;;;;;;;11.65;6.03;;;16.30;70.00;;;;;;5092806;28;20040;-70
2021/05/14 02:16:22;;;;;;;6.85;5.43;;;16.40;69.80;;;;;;5094658;28;20381;-71
2021/05/14 02:18:48;;;;;;;9.00;5.63;;;16.60;69.30;;;;;;5092912;28;20059;-72
2021/05/14 02:21:14;;;;;;;7.88;5.70;;;16.90;68.90;;;;;;5093245;28;20037;-70
2021/05/14 02:23:40;;;;;;;8.45;5.68;;;17.20;68.40;;;;;;5093963;28;20126;-72
2021/05/14 02:26:06;;;;;;;6.85;5.05;;;17.40;67.60;;;;;;5093881;28;20052;-71
2021/05/14 02:28:33;;;;;;;8.07;4.70;;;17.70;67.10;;;;;;5092579;28;20039;-71
2021/05/14 02:30:59;;;;;;;5.43;4.78;;;17.90;66.40;;;;;;5093131;28;20419;-71
2021/05/14 02:33:26;;;;;;;5.30;4.65;;;18.20;65.80;;;;;;5092379;28;20075;-71
2021/05/14 02:35:51;;;;;;;7.03;5.50;;;18.60;65.10;;;;;;5075754;28;20028;-71
2021/05/14 02:38:18;;;;;;;8.23;5.30;;;18.80;64.50;;;;;;5093603;28;20036;-71
2021/05/14 02:40:44;;;;;;;5.75;5.10;;;19.00;64.10;;;;;;5092894;28;20031;-70
2021/05/14 02:43:10;;;;;;;7.40;5.65;;;19.20;63.60;;;;;;5093787;28;20443;-72
2021/05/14 02:45:36;;;;;;;5.68;5.05;;;19.40;63.20;;;;;;5093910;28;20055;-71
2021/05/14 02:48:02;;;;;;;7.05;5.25;;;19.60;62.70;;;;;;5093724;28;20032;-71
2021/05/14 02:50:28;;;;;;;9.88;5.13;;;19.70;62.20;;;;;;5092612;28;20397;-70
2021/05/14 02:52:53;;;;;;;7.47;5.25;;;19.70;62.00;;;;;;5093755;28;20062;-72
2021/05/14 02:55:19;;;;;;;11.02;5.43;;;19.60;61.90;;;;;;5092369;28;20426;-71
2021/05/14 02:57:47;;;;;;;7.63;5.95;;;19.40;61.90;;;;;;5075279;28;20497;-72
2021/05/14 03:00:13;;;;;;;9.52;5.60;;;19.30;62.10;;;;;;5074740;28;20040;-72
2021/05/14 03:02:40;;;;;;;11.23;6.25;;;19.20;62.20;;;;;;5075097;28;20058;-71
2021/05/14 03:05:07;;;;;;;7.85;6.00;;;19.10;62.30;;;;;;5093235;28;20044;-70
2021/05/14 03:07:33;;;;;;;8.70;6.13;;;19.00;61.90;;;;;;5091680;28;20060;-70
2021/05/14 03:09:59;;;;;;;10.13;7.07;;;19.00;62.50;;;;;;5092565;28;20432;-71
2021/05/14 03:12:25;;;;;;;8.80;5.88;;;18.90;62.60;;;;;;5093508;28;20044;-71
2021/05/14 03:14:51;;;;;;;10.27;5.95;;;18.90;62.70;;;;;;5093434;28;20043;-71
2021/05/14 03:17:17;;;;;;;9.25;6.78;;;18.80;62.80;;;;;;5074756;28;20541;-70
2021/05/14 03:19:43;;;;;;;10.60;5.93;;;18.70;62.80;;;;;;5093135;28;20032;-70
2021/05/14 03:22:09;;;;;;;13.15;6.30;;;18.80;62.90;;;;;;5092098;28;20044;-70
2021/05/14 03:24:35;;;;;;;9.90;5.90;;;18.70;62.90;;;;;;5093573;28;20043;-71
2021/05/14 03:27:01;;;;;;;8.25;5.60;;;18.70;63.00;;;;;;5092843;28;20377;-71
2021/05/14 03:29:27;;;;;;;7.38;5.55;;;18.70;63.00;;;;;;5092957;28;20119;-73
2021/05/14 03:31:53;;;;;;;10.60;5.97;;;18.70;63.00;;;;;;5091480;28;20123;-70
2021/05/14 03:34:19;;;;;;;10.43;5.38;;;18.80;63.00;;;;;;5074798;28;20400;-69
2021/05/14 03:36:45;;;;;;;7.97;4.45;;;18.80;62.90;;;;;;5091474;28;20496;-71
2021/05/14 03:39:13;;;;;;;8.82;5.13;;;18.80;62.90;;;;;;5091568;28;20038;-75
2021/05/14 03:42:03;;;;;;;9.60;5.70;;;18.70;62.80;;;;;;5091346;28;20043;-74
2021/05/14 03:44:31;;;;;;;10.18;6.03;;;18.90;62.60;;;;;;5108602;28;20040;-74
2021/05/14 03:46:58;;;;;;;7.78;6.15;;;19.40;62.10;;;;;;5074684;28;20085;-72
2021/05/14 03:49:25;;;;;;;9.20;6.53;;;20.00;61.20;;;;;;5074112;28;20060;-71
2021/05/14 03:51:51;;;;;;;9.15;6.78;;;20.80;60.00;;;;;;5074789;28;20040;-70
2021/05/14 03:54:20;;;;;;;11.45;6.63;;;21.60;58.50;;;;;;5091160;28;20451;-70
2021/05/14 03:56:48;;;;;;;6.82;5.55;;;22.30;57.10;;;;;;5092536;28;20049;-72
2021/05/14 03:59:15;;;;;;;9.50;5.65;;;23.00;55.80;;;;;;5091059;28;20807;-72
2021/05/14 04:01:41;;;;;;;6.50;4.82;;;23.50;54.70;;;;;;5091099;28;20119;-73
2021/05/14 04:04:07;;;;;;;8.07;4.90;;;24.00;53.60;;;;;;5090774;28;20571;-71
2021/05/14 04:06:33;;;;;;;8.23;4.32;;;24.50;52.60;;;;;;5074483;28;20043;-71
2021/05/14 04:08:59;;;;;;;6.97;4.40;;;24.80;51.80;;;;;;5073986;28;20111;-70
2021/05/14 04:11:54;;;;;;;6.63;4.45;;;25.30;51.00;;;;;;5091506;28;20040;-69
2021/05/14 04:14:33;;;;;;;7.90;4.45;;;25.70;50.20;;;;;;5090016;28;20476;-71
2021/05/14 04:17:02;;;;;;;6.97;4.40;;;26.20;49.60;;;;;;5078661;28;20519;-75
2021/05/14 04:19:29;;;;;;;5.60;4.22;;;26.70;48.80;;;;;;5078837;28;20039;-75
2021/05/14 04:21:57;;;;;;;7.03;3.92;;;27.00;47.90;;;;;;5078168;28;20040;-75
2021/05/14 04:24:24;;;;;;;6.63;4.50;;;27.50;47.40;;;;;;5095230;28;20035;-75
2021/05/14 04:26:51;;;;;;;12.75;3.53;;;27.90;46.70;;;;;;5078214;28;20035;-74
2021/05/14 04:29:18;;;;;;;7.53;4.15;;;28.30;46.10;;;;;;5096328;28;20024;-73
2021/05/14 04:31:45;;;;;;;8.75;4.25;;;28.50;45.60;;;;;;5095070;28;20040;-73
2021/05/14 04:34:12;;;;;;;5.60;3.38;;;28.70;45.20;;;;;;5095146;28;20118;-72
2021/05/14 04:36:39;;;;;;;5.72;3.35;;;28.70;44.90;;;;;;5096652;28;20036;-71
2021/05/14 04:39:07;;;;;;;5.47;3.63;;;28.90;44.70;;;;;;5077726;28;20038;-69
2021/05/14 04:41:34;;;;;;;8.20;3.70;;;29.00;44.40;;;;;;5094078;28;20040;-70
2021/05/14 04:44:01;;;;;;;4.63;3.50;;;29.20;44.30;;;;;;5095619;28;20043;-69
2021/05/14 04:46:27;;;;;;;5.05;3.10;;;29.40;43.80;;;;;;5077815;28;20036;-72
2021/05/14 04:48:53;;;;;;;4.15;3.40;;;29.60;43.60;;;;;;5094857;28;20040;-70
2021/05/14 04:51:20;;;;;;;10.48;8.60;;;29.90;43.20;;;;;;5094343;28;20087;-69
2021/05/14 04:53:47;;;;;;;13.82;5.97;;;30.00;42.90;;;;;;5095491;28;20595;-67
2021/05/14 04:56:15;;;;;;;12.38;5.03;;;30.10;44.60;;;;;;5094594;28;20032;-69
2021/05/14 04:58:41;;;;;;;20.25;5.68;;;30.50;45.50;;;;;;5094962;28;20036;-69
2021/05/14 05:01:08;;;;;;;9.38;4.35;;;30.60;45.10;;;;;;5077256;28;20131;-66
2021/05/14 05:03:35;;;;;;;13.13;3.85;;;31.00;43.60;;;;;;5077505;28;20510;-67
2021/05/14 05:06:05;;;;;;;7.40;3.63;;;31.00;42.70;;;;;;5094370;28;20532;-66
2021/05/14 05:08:31;;;;;;;7.95;3.65;;;31.10;41.80;;;;;;5095321;28;20404;-66
2021/05/14 05:10:57;;;;;;;6.55;3.25;;;30.90;42.50;;;;;;5076892;28;20039;-67
2021/05/14 05:13:23;;;;;;;10.25;3.20;;;30.90;42.00;;;;;;5094641;28;20506;-65
2021/05/14 05:15:49;;;;;;;6.45;2.92;;;30.80;42.10;;;;;;5094287;28;20089;-66
2021/05/14 05:18:15;;;;;;;6.57;3.17;;;30.90;41.10;;;;;;5095885;28;20115;-66
2021/05/14 05:20:41;;;;;;;5.20;2.97;;;31.10;41.40;;;;;;5095577;28;20043;-65
2021/05/14 05:23:07;;;;;;;9.95;3.17;;;31.20;40.70;;;;;;5094691;28;20051;-67
2021/05/14 05:25:33;;;;;;;6.13;3.75;;;31.40;40.00;;;;;;5094095;28;20488;-66
2021/05/14 05:27:59;;;;;;;3.75;3.35;;;31.40;39.50;;;;;;5093997;28;20032;-66
2021/05/14 05:30:25;;;;;;;7.15;3.60;;;31.40;39.30;;;;;;5095464;28;20097;-66
2021/05/14 05:32:51;;;;;;;9.00;3.05;;;31.20;38.90;;;;;;5095698;28;20028;-70
2021/05/14 05:35:18;;;;;;;6.55;2.80;;;31.30;39.20;;;;;;5076852;28;20028;-72
2021/05/14 05:37:44;;;;;;;7.50;3.13;;;31.40;39.30;;;;;;5094736;28;20038;-71
2021/05/14 05:40:10;;;;;;;4.38;3.20;;;31.40;38.80;;;;;;5094945;28;20118;-71
2021/05/14 05:42:37;;;;;;;4.28;2.72;;;31.50;38.90;;;;;;5076609;28;20139;-70
2021/05/14 05:45:04;;;;;;;4.68;2.67;;;31.50;38.70;;;;;;5093786;28;20032;-71
2021/05/14 05:47:32;;;;;;;10.65;4.03;;;31.80;38.80;;;;;;5093642;28;20069;-70
2021/05/14 05:49:59;;;;;;;9.93;3.55;;;32.00;38.60;;;;;;5095351;28;20083;-70
2021/05/14 05:52:25;;;;;;;11.25;3.72;;;32.00;39.20;;;;;;5076553;28;20063;-71
2021/05/14 05:54:51;;;;;;;7.45;3.30;;;32.00;39.70;;;;;;5094506;28;20048;-71
2021/05/14 05:57:17;;;;;;;7.07;3.15;;;32.10;38.90;;;;;;5094761;28;20051;-67
2021/05/14 05:59:43;;;;;;;7.45;3.58;;;31.90;39.20;;;;;;5093532;28;20395;-68
2021/05/14 06:02:09;;;;;;;9.20;4.30;;;32.10;39.50;;;;;;5093355;28;20443;-66
2021/05/14 06:04:35;;;;;;;9.07;7.35;;;32.30;40.00;;;;;;5094347;28;20024;-67
2021/05/14 06:07:01;;;;;;;15.15;7.20;;;32.10;40.10;;;;;;5076605;28;20040;-67
2021/05/14 06:09:27;;;;;;;12.90;10.68;;;32.20;40.70;;;;;;5094322;28;20062;-69
2021/05/14 06:11:53;;;;;;;11.32;6.97;;;32.10;42.30;;;;;;5093145;28;20032;-67
2021/05/14 06:14:19;;;;;;;11.43;4.80;;;32.20;41.00;;;;;;5094256;28;20035;-68
2021/05/14 06:16:45;;;;;;;7.72;4.35;;;32.30;39.80;;;;;;5094960;28;20040;-68
2021/05/14 06:19:16;;;;;;;4.05;3.50;;;32.10;39.10;;;;;;5094629;28;20091;-68
2021/05/14 06:21:49;;;;;;;5.53;3.50;;;32.10;39.20;;;;;;5094782;28;20036;-66
2021/05/14 06:24:17;;;;;;;4.82;3.20;;;32.00;38.50;;;;;;5094586;28;20122;-68
2021/05/14 06:26:47;;;;;;;7.13;4.78;;;31.90;38.70;;;;;;5092685;28;20036;-66
2021/05/14 06:29:14;;;;;;;8.30;4.40;;;31.60;38.10;;;;;;5094316;28;20042;-66
2021/05/14 06:31:40;;;;;;;7.95;3.88;;;31.30;38.50;;;;;;5094318;28;20048;-67
2021/05/14 06:34:06;;;;;;;7.25;3.80;;;31.30;38.80;;;;;;5108680;28;20040;-68
2021/05/14 06:36:33;;;;;;;4.30;3.38;;;31.20;38.90;;;;;;5094307;28;20371;-67
2021/05/14 06:38:59;;;;;;;4.50;3.10;;;31.30;38.80;;;;;;5093854;28;20161;-71
2021/05/14 06:41:26;;;;;;;4.40;3.15;;;31.30;38.50;;;;;;5094020;28;20058;-71
2021/05/14 06:43:53;;;;;;;5.43;4.63;;;31.10;38.70;;;;;;5092913;28;20039;-72
2021/05/14 06:46:19;;;;;;;4.38;3.88;;;30.90;38.80;;;;;;5092921;28;20040;-71
2021/05/14 06:48:47;;;;;;;5.75;3.88;;;30.70;39.00;;;;;;5076153;28;20145;-73
2021/05/14 06:51:13;;;;;;;5.30;3.35;;;30.90;39.00;;;;;;5093948;28;20512;-73
2021/05/14 06:53:40;;;;;;;3.60;3.30;;;31.00;38.80;;;;;;5096829;28;20051;-71
2021/05/14 06:56:07;;;;;;;3.90;2.95;;;31.00;38.40;;;;;;5113834;28;20040;-70
2021/05/14 06:58:33;;;;;;;2.80;2.55;;;30.70;38.50;;;;;;5096059;28;20508;-72
2021/05/14 07:00:59;;;;;;;6.35;2.72;;;30.60;38.80;;;;;;5097650;28;20035;-71
2021/05/14 07:03:25;;;;;;;4.90;2.83;;;30.40;39.10;;;;;;5098312;28;20040;-74
2021/05/14 07:05:52;;;;;;;5.38;3.30;;;30.30;39.50;;;;;;5100074;28;20044;-72
2021/05/14 07:08:18;;;;;;;4.28;3.13;;;30.30;39.50;;;;;;5078531;28;20032;-72
2021/05/14 07:10:44;;;;;;;4.95;3.13;;;30.20;39.10;;;;;;5114428;28;20113;-72
2021/05/14 07:13:11;;;;;;;3.60;2.42;;;30.30;39.30;;;;;;5096354;28;20484;-73
2021/05/14 07:15:37;;;;;;;3.72;2.60;;;30.20;39.20;;;;;;5097125;28;20032;-73
2021/05/14 07:18:04;;;;;;;5.22;3.05;;;30.10;39.10;;;;;;5099915;28;20028;-72
2021/05/14 07:20:32;;;;;;;5.10;2.33;;;29.90;39.40;;;;;;5100327;28;20066;-71
2021/05/14 07:22:59;;;;;;;3.40;2.53;;;29.80;39.60;;;;;;5082845;28;20028;-72
2021/05/14 07:25:25;;;;;;;3.17;2.40;;;29.70;39.80;;;;;;5100149;28;20040;-73
2021/05/14 07:27:51;;;;;;;3.33;2.17;;;29.70;39.80;;;;;;5097675;28;20036;-72
2021/05/14 07:30:17;;;;;;;2.45;2.25;;;29.60;40.10;;;;;;5098269;28;20139;-72
2021/05/14 07:32:43;;;;;;;2.28;2.03;;;29.70;39.80;;;;;;5097007;28;20062;-72
2021/05/14 07:35:10;;;;;;;2.30;2.10;;;29.70;39.60;;;;;;5096304;28;20548;-72
2021/05/14 07:37:36;;;;;;;3.53;2.05;;;29.60;39.80;;;;;;5094063;28;20040;-72
2021/05/14 07:40:04;;;;;;;3.33;2.20;;;29.50;40.10;;;;;;5099870;28;20047;-72
2021/05/14 07:42:30;;;;;;;4.20;2.03;;;29.10;40.30;;;;;;5097956;28;20032;-72
2021/05/14 07:44:56;;;;;;;2.90;2.05;;;29.00;40.30;;;;;;5100789;28;20051;-71
2021/05/14 07:47:23;;;;;;;2.38;1.90;;;29.10;40.30;;;;;;5099365;28;20550;-73
2021/05/14 07:49:49;;;;;;;3.28;2.05;;;29.30;40.20;;;;;;5099930;28;20496;-72
2021/05/14 07:52:15;;;;;;;2.33;2.13;;;29.30;40.00;;;;;;5098188;28;20102;-71
2021/05/14 07:54:41;;;;;;;2.45;2.00;;;29.20;40.10;;;;;;5080345;28;20496;-71
2021/05/14 07:57:07;;;;;;;2.42;2.00;;;29.30;40.10;;;;;;5096893;28;20039;-72
2021/05/14 07:59:34;;;;;;;2.70;1.90;;;29.20;40.40;;;;;;5098596;28;20047;-72
2021/05/14 08:02:00;;;;;;;2.20;1.70;;;29.10;40.50;;;;;;5098368;28;20492;-72
2021/05/14 08:04:26;;;;;;;3.95;1.70;;;29.10;40.90;;;;;;5093380;28;20040;-73
2021/05/14 08:06:53;;;;;;;3.78;2.22;;;28.80;40.90;;;;;;5092517;28;20495;-72
2021/05/14 08:09:22;;;;;;;4.00;2.15;;;28.60;41.40;;;;;;5075161;28;20036;-72
2021/05/14 08:11:49;;;;;;;2.40;2.10;;;28.60;41.30;;;;;;5091849;28;20036;-72
2021/05/14 08:14:18;;;;;;;2.55;2.35;;;28.50;41.60;;;;;;5075812;28;20460;-72
2021/05/14 08:16:45;;;;;;;5.25;2.20;;;28.50;41.80;;;;;;5091600;28;20411;-72
2021/05/14 08:19:12;;;;;;;2.50;2.30;;;28.50;41.90;;;;;;5093012;28;20093;-71
2021/05/14 08:21:45;;;;;;;2.83;2.40;;;28.40;42.00;;;;;;5075064;28;20036;-71
2021/05/14 08:24:13;;;;;;;3.10;2.50;;;28.40;42.30;;;;;;5091745;28;20119;-71
2021/05/14 08:26:39;;;;;;;2.55;2.35;;;28.10;42.70;;;;;;5092994;28;20059;-72
2021/05/14 08:29:07;;;;;;;4.35;2.30;;;28.00;42.90;;;;;;5092473;28;20120;-71
2021/05/14 08:31:34;;;;;;;2.53;2.33;;;28.00;43.00;;;;;;5092402;28;20093;-72
2021/05/14 08:34:03;;;;;;;3.33;2.50;;;28.00;43.20;;;;;;5091453;28;20040;-71
2021/05/14 08:36:30;;;;;;;3.13;2.20;;;27.80;43.30;;;;;;5092565;28;20048;-71
2021/05/14 08:38:56;;;;;;;3.80;2.20;;;27.80;43.40;;;;;;5091257;28;20085;-70
2021/05/14 08:41:22;;;;;;;4.05;2.30;;;27.70;43.60;;;;;;5091171;28;20123;-71
2021/05/14 08:43:48;;;;;;;4.00;2.50;;;27.70;43.60;;;;;;5091193;28;20088;-72
2021/05/14 08:46:18;;;;;;;3.25;2.05;;;27.70;43.60;;;;;;5092192;28;20126;-71
2021/05/14 08:48:45;;;;;;;4.35;2.60;;;27.60;43.50;;;;;;5091579;28;20050;-72
2021/05/14 08:51:13;;;;;;;2.55;2.35;;;27.60;43.50;;;;;;5074455;28;20194;-69
2021/05/14 08:53:45;;;;;;;3.90;2.30;;;27.50;43.80;;;;;;5092333;28;20043;-71
2021/05/14 08:56:12;;;;;;;4.35;2.47;;;27.50;43.80;;;;;;5076041;28;20043;-72
2021/05/14 08:58:40;;;;;;;5.07;2.70;;;27.50;43.90;;;;;;5078078;28;20028;-72
2021/05/14 09:01:07;;;;;;;2.72;2.53;;;27.40;44.10;;;;;;5078771;28;20044;-70
2021/05/14 09:03:56;;;;;;;4.00;2.58;;;27.40;44.30;;;;;;5096201;28;20028;-72
2021/05/14 09:06:34;;;;;;;2.95;2.75;;;27.30;44.50;;;;;;5094503;28;20036;-74
2021/05/14 09:09:12;;;;;;;5.43;2.72;;;27.30;44.60;;;;;;5077706;28;20034;-71
2021/05/14 09:11:41;;;;;;;3.38;2.42;;;27.30;44.60;;;;;;5094548;28;20507;-71
2021/05/14 09:14:28;;;;;;;4.90;2.40;;;27.30;44.20;;;;;;5094496;28;20119;-72
2021/05/14 09:16:54;;;;;;;2.72;2.53;;;27.30;43.70;;;;;;5077455;28;20036;-71
2021/05/14 09:19:48;;;;;;;3.80;2.20;;;27.10;43.90;;;;;;5095781;28;20515;-71
2021/05/14 09:22:24;;;;;;;3.35;2.40;;;27.10;44.10;;;;;;5077916;28;20067;-70
2021/05/14 09:25:01;;;;;;;5.32;2.65;;;27.10;44.00;;;;;;5094225;28;20078;-74
2021/05/14 09:27:36;;;;;;;3.33;2.47;;;27.00;43.10;;;;;;5094357;28;20047;-73
2021/05/14 09:30:08;;;;;;;4.50;2.78;;;27.00;42.50;;;;;;5077383;28;20117;-71
2021/05/14 09:32:35;;;;;;;3.28;2.88;;;26.90;42.80;;;;;;5094173;28;20040;-73
2021/05/14 09:35:04;;;;;;;3.35;2.40;;;26.80;42.80;;;;;;5094152;28;20480;-72
2021/05/14 09:37:31;;;;;;;2.63;2.42;;;26.80;43.00;;;;;;5077034;28;20036;-72
2021/05/14 09:40:19;;;;;;;5.53;2.65;;;26.80;43.50;;;;;;5094358;28;20111;-71
2021/05/14 09:42:47;;;;;;;3.50;2.83;;;26.80;43.20;;;;;;5093879;28;20089;-71
2021/05/14 09:45:21;;;;;;;3.05;2.75;;;26.80;43.10;;;;;;5093721;28;20081;-72
2021/05/14 09:48:26;;;;;;;3.80;2.90;;;26.80;43.10;;;;;;5094141;28;20046;-71
2021/05/14 09:50:55;;;;;;;3.90;3.05;;;26.90;43.10;;;;;;5067559;28;20052;-71
2021/05/14 09:53:22;;;;;;;4.28;2.90;;;26.80;43.30;;;;;;5076645;28;20129;-73
2021/05/14 09:55:59;;;;;;;5.85;3.00;;;26.80;43.20;;;;;;5093764;28;20036;-71
2021/05/14 09:58:27;;;;;;;5.05;2.72;;;26.80;43.30;;;;;;5076994;28;20027;-72
2021/05/14 10:00:54;;;;;;;3.58;2.95;;;26.80;43.50;;;;;;5093647;28;20036;-71
2021/05/14 10:03:22;;;;;;;4.00;2.78;;;26.80;43.40;;;;;;5094510;28;20089;-72
2021/05/14 10:05:50;;;;;;;5.72;3.05;;;26.70;43.30;;;;;;5093137;28;20500;-72
2021/05/14 10:08:21;;;;;;;3.38;3.08;;;26.60;43.60;;;;;;5093292;28;20091;-71
2021/05/14 10:10:48;;;;;;;4.45;3.20;;;26.50;44.00;;;;;;5094178;28;20082;-72
2021/05/14 10:13:14;;;;;;;3.10;2.80;;;26.40;44.40;;;;;;5093124;28;20040;-70
2021/05/14 10:15:40;;;;;;;5.05;3.30;;;26.30;44.50;;;;;;5094239;28;20028;-72
2021/05/14 10:18:15;;;;;;;5.05;2.90;;;26.20;44.70;;;;;;5092995;28;20043;-72
2021/05/14 10:20:42;;;;;;;4.10;3.08;;;26.30;44.60;;;;;;5094198;28;20097;-72
2021/05/14 10:23:09;;;;;;;4.95;2.75;;;26.30;44.60;;;;;;5093146;28;20032;-72
2021/05/14 10:25:42;;;;;;;4.68;3.20;;;26.30;44.50;;;;;;5093370;28;20048;-71
2021/05/14 10:28:11;;;;;;;5.18;3.22;;;26.30;44.50;;;;;;5076415;28;20520;-73
2021/05/14 10:30:57;;;;;;;4.38;3.10;;;26.30;44.40;;;;;;5092475;28;20040;-71
2021/05/14 10:33:52;;;;;;;5.55;3.25;;;26.20;44.50;;;;;;5092546;28;20404;-71
2021/05/14 10:36:22;;;;;;;6.55;3.47;;;26.20;44.30;;;;;;5062799;28;20044;-70
2021/05/14 10:39:05;;;;;;;6.28;3.13;;;26.20;44.50;;;;;;5093860;28;20044;-71
2021/05/14 10:41:32;;;;;;;4.18;3.20;;;26.10;44.80;;;;;;5075798;28;20499;-71
2021/05/14 10:44:04;;;;;;;5.78;3.58;;;26.10;44.90;;;;;;5092740;28;20032;-71
2021/05/14 10:46:32;;;;;;;3.78;3.47;;;26.00;45.10;;;;;;5092774;28;20040;-71
2021/05/14 10:49:06;;;;;;;6.88;4.10;;;26.00;45.50;;;;;;5092092;28;20032;-76
2021/05/14 10:51:50;;;;;;;5.77;3.80;;;26.00;45.50;;;;;;5092018;28;20122;-71
2021/05/14 10:54:38;;;;;;;4.88;3.83;;;26.00;46.00;;;;;;5092274;28;20286;-72
2021/05/14 10:57:14;;;;;;;4.88;3.90;;;26.00;46.40;;;;;;5093366;28;20131;-72
2021/05/14 10:59:42;;;;;;;3.85;3.53;;;26.10;46.80;;;;;;5093419;28;20032;-72
2021/05/14 11:02:28;;;;;;;4.72;4.00;;;26.00;46.90;;;;;;5091772;28;20032;-71
2021/05/14 11:04:58;;;;;;;5.80;4.07;;;25.90;47.30;;;;;;5075276;28;20114;-73
2021/05/14 11:07:41;;;;;;;3.85;3.45;;;25.90;47.40;;;;;;5092497;28;20043;-72
2021/05/14 11:10:13;;;;;;;5.07;3.85;;;25.90;47.40;;;;;;5074949;28;20040;-72
2021/05/14 11:12:41;;;;;;;6.00;3.10;;;25.90;47.10;;;;;;5091744;28;20031;-71
2021/05/14 11:15:30;;;;;;;4.15;3.35;;;25.80;46.20;;;;;;5092135;28;20484;-72
2021/05/14 11:18:14;;;;;;;4.47;3.20;;;25.80;45.70;;;;;;5075203;28;20039;-73
2021/05/14 11:20:46;;;;;;;6.35;2.85;;;25.80;45.20;;;;;;5093180;28;20515;-71
2021/05/14 11:23:32;;;;;;;4.35;2.58;;;25.70;45.00;;;;;;5093036;28;20028;-71
2021/05/14 11:25:58;;;;;;;4.78;2.85;;;25.70;45.10;;;;;;5091890;28;20047;-72
2021/05/14 11:28:50;;;;;;;4.63;2.65;;;25.70;45.00;;;;;;5092160;28;20024;-72
2021/05/14 11:31:17;;;;;;;2.80;2.60;;;25.70;44.60;;;;;;5091640;28;20086;-72
2021/05/14 11:33:51;;;;;;;5.15;2.97;;;25.70;44.50;;;;;;5074287;28;20024;-71
2021/05/14 11:36:18;;;;;;;3.22;2.70;;;25.70;44.50;;;;;;5091633;28;20039;-72
2021/05/14 11:38:59;;;;;;;3.55;2.83;;;25.80;45.00;;;;;;5074690;28;20100;-72
2021/05/14 11:41:31;;;;;;;4.18;2.58;;;25.80;44.90;;;;;;5075033;28;20146;-71
2021/05/14 11:44:00;;;;;;;7.25;2.88;;;25.80;44.90;;;;;;5074825;28;20028;-72
2021/05/14 11:46:31;;;;;;;3.92;2.70;;;25.70;44.90;;;;;;5091631;28;20135;-72
2021/05/14 11:49:04;;;;;;;2.92;2.47;;;25.70;45.00;;;;;;5092719;28;20062;-75
2021/05/14 11:51:30;;;;;;;4.03;2.60;;;25.70;44.70;;;;;;5093047;28;20048;-72
2021/05/14 11:54:08;;;;;;;5.45;2.47;;;25.70;44.40;;;;;;5074512;28;20024;-72
2021/05/14 11:56:34;;;;;;;2.70;2.50;;;25.70;43.80;;;;;;5091669;28;20040;-72
2021/05/14 11:59:00;;;;;;;3.90;2.50;;;25.80;43.20;;;;;;5092636;28;20493;-72
2021/05/14 12:01:41;;;;;;;2.72;2.50;;;25.80;44.30;;;;;;5091665;28;20087;-72
2021/05/14 12:04:07;;;;;;;4.07;2.30;;;25.90;43.40;;;;;;5092710;28;20036;-73
2021/05/14 12:06:45;;;;;;;6.15;2.22;;;25.90;43.40;;;;;;5074730;28;20024;-72
2021/05/14 12:09:12;;;;;;;2.67;2.20;;;25.90;43.00;;;;;;5092518;28;20039;-72
2021/05/14 12:11:39;;;;;;;2.92;2.20;;;25.80;42.70;;;;;;5091209;28;20131;-72
2021/05/14 12:14:07;;;;;;;3.72;2.30;;;25.90;42.60;;;;;;5091179;28;20404;-71
2021/05/14 12:16:36;;;;;;;3.72;2.38;;;25.90;42.20;;;;;;5091462;28;20039;-71
2021/05/14 12:19:04;;;;;;;2.95;2.00;;;26.00;40.70;;;;;;5091310;28;20047;-73
2021/05/14 12:21:33;;;;;;;2.30;1.90;;;25.90;40.70;;;;;;5091219;28;20028;-72
2021/05/14 12:24:11;;;;;;;4.25;1.90;;;25.80;40.50;;;;;;5092511;28;20040;-71
2021/05/14 12:26:38;;;;;;;3.03;2.15;;;25.90;40.10;;;;;;5091696;28;20036;-73
2021/05/14 12:29:20;;;;;;;3.22;1.85;;;25.90;39.50;;;;;;5092592;28;20032;-72
2021/05/14 12:31:54;;;;;;;3.65;1.65;;;25.80;40.10;;;;;;5074379;28;20066;-72
2021/05/14 12:34:23;;;;;;;5.97;1.85;;;25.80;40.60;;;;;;5095342;28;20089;-72
2021/05/14 12:36:54;;;;;;;3.28;2.00;;;25.70;40.60;;;;;;5095455;28;20059;-74
2021/05/14 12:39:23;;;;;;;7.05;2.05;;;25.80;40.40;;;;;;5095247;28;20109;-73
2021/05/14 12:41:52;;;;;;;2.17;2.00;;;25.70;40.80;;;;;;5094922;28;20032;-72
2021/05/14 12:44:34;;;;;;;6.28;2.20;;;25.70;40.90;;;;;;5078080;28;20126;-72
2021/05/14 12:47:08;;;;;;;3.97;2.03;;;25.70;40.80;;;;;;5095948;28;20042;-73
2021/05/14 12:49:45;;;;;;;5.70;1.85;;;25.70;41.10;;;;;;5077835;28;20044;-74
2021/05/14 12:52:29;;;;;;;10.77;2.10;;;25.70;40.80;;;;;;5094875;28;20585;-75
2021/05/14 12:55:15;;;;;;;9.07;2.28;;;25.70;41.20;;;;;;5077785;28;20043;-69